sensor_id;sensor_type;location;lat;lon;timestamp;temperature;humidity
51922;DHT22;37948;53.260;6.394;2022-09-09T00:04:37;16.30;99.90
51922;DHT22;37948;53.260;6.394;2022-09-09T00:07:32;16.30;99.90
51922;DHT22;37948;53.260;6.394;2022-09-09T00:13:16;16.30;99.90
51922;DHT22;37948;53.260;6.394;2022-09-09T00:16:04;16.30;99.90
51922;DHT22;37948;53.260;6.394;2022-09-09T00:21:33;16.20;99.90
51922;DHT22;37948;53.260;6.394;2022-09-09T00:24:08;16.20;99.90
51922;DHT22;37948;53.260;6.394;2022-09-09T00:26:38;16.20;99.90
51922;DHT22;37948;53.260;6.394;2022-09-09T00:29:33;16.10;99.90
51922;DHT22;37948;53.260;6.394;2022-09-09T00:32:12;16.10;99.90
51922;DHT22;37948;53.260;6.394;2022-09-09T00:34:48;16.10;99.90
51922;DHT22;37948;53.260;6.394;2022-09-09T00:37:15;16.10;99.90
51922;DHT22;37948;53.260;6.394;2022-09-09T00:39:44;16.10;99.90
51922;DHT22;37948;53.260;6.394;2022-09-09T00:42:20;16.10;99.90
51922;DHT22;37948;53.260;6.394;2022-09-09T00:44:51;16.00;99.90
51922;DHT22;37948;53.260;6.394;2022-09-09T00:47:40;16.00;99.90
51922;DHT22;37948;53.260;6.394;2022-09-09T00:58:16;15.90;99.90
51922;DHT22;37948;53.260;6.394;2022-09-09T01:00:49;15.90;99.90
51922;DHT22;37948;53.260;6.394;2022-09-09T01:03:36;15.90;99.90
51922;DHT22;37948;53.260;6.394;2022-09-09T01:06:16;15.90;99.90
51922;DHT22;37948;53.260;6.394;2022-09-09T01:13:52;15.80;99.90
51922;DHT22;37948;53.260;6.394;2022-09-09T01:16:18;15.80;99.90
51922;DHT22;37948;53.260;6.394;2022-09-09T01:18:48;15.90;99.90
51922;DHT22;37948;53.260;6.394;2022-09-09T01:21:37;15.80;99.90
51922;DHT22;37948;53.260;6.394;2022-09-09T01:26:50;15.80;99.90
51922;DHT22;37948;53.260;6.394;2022-09-09T01:29:18;15.80;99.90
51922;DHT22;37948;53.260;6.394;2022-09-09T01:31:57;15.80;99.90
51922;DHT22;37948;53.260;6.394;2022-09-09T01:34:25;15.70;99.90
51922;DHT22;37948;53.260;6.394;2022-09-09T01:39:21;15.70;99.90
51922;DHT22;37948;53.260;6.394;2022-09-09T01:41:47;15.70;99.90
51922;DHT22;37948;53.260;6.394;2022-09-09T01:44:13;15.70;99.90
51922;DHT22;37948;53.260;6.394;2022-09-09T01:46:38;15.70;99.90
51922;DHT22;37948;53.260;6.394;2022-09-09T01:49:06;15.70;99.90
51922;DHT22;37948;53.260;6.394;2022-09-09T01:51:33;15.70;99.90
51922;DHT22;37948;53.260;6.394;2022-09-09T01:54:00;15.70;99.90
51922;DHT22;37948;53.260;6.394;2022-09-09T01:57:04;15.70;99.90
51922;DHT22;37948;53.260;6.394;2022-09-09T01:59:45;15.70;99.90
51922;DHT22;37948;53.260;6.394;2022-09-09T02:02:18;15.70;99.90
51922;DHT22;37948;53.260;6.394;2022-09-09T02:04:48;15.70;99.90
51922;DHT22;37948;53.260;6.394;2022-09-09T02:07:25;15.70;99.90
51922;DHT22;37948;53.260;6.394;2022-09-09T02:10:01;15.70;99.90
51922;DHT22;37948;53.260;6.394;2022-09-09T02:12:28;15.70;99.90
51922;DHT22;37948;53.260;6.394;2022-09-09T02:15:00;15.70;99.90
51922;DHT22;37948;53.260;6.394;2022-09-09T02:17:31;15.70;99.90
51922;DHT22;37948;53.260;6.394;2022-09-09T02:20:08;15.70;99.90
51922;DHT22;37948;53.260;6.394;2022-09-09T02:22:37;15.70;99.90
51922;DHT22;37948;53.260;6.394;2022-09-09T02:25:07;15.70;99.90
51922;DHT22;37948;53.260;6.394;2022-09-09T02:27:34;15.70;99.90
51922;DHT22;37948;53.260;6.394;2022-09-09T02:30:03;15.70;99.90
51922;DHT22;37948;53.260;6.394;2022-09-09T02:32:30;15.70;99.90
51922;DHT22;37948;53.260;6.394;2022-09-09T02:35:05;15.70;99.90
51922;DHT22;37948;53.260;6.394;2022-09-09T02:37:36;15.70;99.90
51922;DHT22;37948;53.260;6.394;2022-09-09T02:40:07;15.70;99.90
51922;DHT22;37948;53.260;6.394;2022-09-09T02:42:48;15.70;99.90
51922;DHT22;37948;53.260;6.394;2022-09-09T02:45:18;15.70;99.90
51922;DHT22;37948;53.260;6.394;2022-09-09T02:47:47;15.70;99.90
51922;DHT22;37948;53.260;6.394;2022-09-09T02:50:29;15.70;99.90
51922;DHT22;37948;53.260;6.394;2022-09-09T02:53:09;15.70;99.90
51922;DHT22;37948;53.260;6.394;2022-09-09T02:55:56;15.70;99.90
51922;DHT22;37948;53.260;6.394;2022-09-09T02:58:23;15.70;99.90
51922;DHT22;37948;53.260;6.394;2022-09-09T03:00:51;15.70;99.90
51922;DHT22;37948;53.260;6.394;2022-09-09T03:03:17;15.70;99.90
51922;DHT22;37948;53.260;6.394;2022-09-09T03:05:44;15.70;99.90
51922;DHT22;37948;53.260;6.394;2022-09-09T03:08:10;15.70;99.90
51922;DHT22;37948;53.260;6.394;2022-09-09T03:10:36;15.70;99.90
51922;DHT22;37948;53.260;6.394;2022-09-09T03:13:02;15.70;99.90
51922;DHT22;37948;53.260;6.394;2022-09-09T03:15:31;15.70;99.90
51922;DHT22;37948;53.260;6.394;2022-09-09T03:17:58;15.70;99.90
51922;DHT22;37948;53.260;6.394;2022-09-09T03:20:25;15.70;99.90
51922;DHT22;37948;53.260;6.394;2022-09-09T03:22:52;15.70;99.90
51922;DHT22;37948;53.260;6.394;2022-09-09T03:25:17;15.80;99.90
51922;DHT22;37948;53.260;6.394;2022-09-09T03:27:43;15.70;99.90
51922;DHT22;37948;53.260;6.394;2022-09-09T03:30:09;15.80;99.90
51922;DHT22;37948;53.260;6.394;2022-09-09T03:32:35;15.70;99.90
51922;DHT22;37948;53.260;6.394;2022-09-09T03:35:00;15.70;99.90
51922;DHT22;37948;53.260;6.394;2022-09-09T03:37:26;15.80;99.90
51922;DHT22;37948;53.260;6.394;2022-09-09T03:39:52;15.70;99.90
51922;DHT22;37948;53.260;6.394;2022-09-09T03:42:20;15.70;99.90
51922;DHT22;37948;53.260;6.394;2022-09-09T03:44:47;15.70;99.90
51922;DHT22;37948;53.260;6.394;2022-09-09T03:47:19;15.70;99.90
51922;DHT22;37948;53.260;6.394;2022-09-09T03:49:46;15.70;99.90
51922;DHT22;37948;53.260;6.394;2022-09-09T03:52:12;15.70;99.90
51922;DHT22;37948;53.260;6.394;2022-09-09T03:54:38;15.70;99.90
51922;DHT22;37948;53.260;6.394;2022-09-09T03:57:04;15.70;99.90
51922;DHT22;37948;53.260;6.394;2022-09-09T03:59:30;15.70;99.90
51922;DHT22;37948;53.260;6.394;2022-09-09T04:01:56;15.70;99.90
51922;DHT22;37948;53.260;6.394;2022-09-09T04:04:22;15.60;99.90
51922;DHT22;37948;53.260;6.394;2022-09-09T04:06:48;15.60;99.90
51922;DHT22;37948;53.260;6.394;2022-09-09T04:09:14;15.70;99.90
51922;DHT22;37948;53.260;6.394;2022-09-09T04:11:40;15.60;99.90
51922;DHT22;37948;53.260;6.394;2022-09-09T04:14:05;15.70;99.90
51922;DHT22;37948;53.260;6.394;2022-09-09T04:16:32;15.70;99.90
51922;DHT22;37948;53.260;6.394;2022-09-09T04:18:58;15.70;99.90
51922;DHT22;37948;53.260;6.394;2022-09-09T04:21:25;15.70;99.90
51922;DHT22;37948;53.260;6.394;2022-09-09T04:23:51;15.70;99.90
51922;DHT22;37948;53.260;6.394;2022-09-09T04:26:17;15.70;99.90
51922;DHT22;37948;53.260;6.394;2022-09-09T04:28:42;15.70;99.90
51922;DHT22;37948;53.260;6.394;2022-09-09T04:31:19;15.70;99.90
51922;DHT22;37948;53.260;6.394;2022-09-09T04:33:45;15.70;99.90
51922;DHT22;37948;53.260;6.394;2022-09-09T04:36:12;15.70;99.90
51922;DHT22;37948;53.260;6.394;2022-09-09T04:38:38;15.70;99.90
51922;DHT22;37948;53.260;6.394;2022-09-09T04:41:03;15.70;99.90
51922;DHT22;37948;53.260;6.394;2022-09-09T04:43:29;15.70;99.90
51922;DHT22;37948;53.260;6.394;2022-09-09T04:45:56;15.70;99.90
51922;DHT22;37948;53.260;6.394;2022-09-09T04:48:21;15.70;99.90
51922;DHT22;37948;53.260;6.394;2022-09-09T04:51:04;15.70;99.90
51922;DHT22;37948;53.260;6.394;2022-09-09T04:53:30;15.70;99.90
51922;DHT22;37948;53.260;6.394;2022-09-09T04:56:07;15.70;99.90
51922;DHT22;37948;53.260;6.394;2022-09-09T04:58:33;15.80;99.90
51922;DHT22;37948;53.260;6.394;2022-09-09T05:01:18;15.70;99.90
51922;DHT22;37948;53.260;6.394;2022-09-09T05:03:44;15.70;99.90
51922;DHT22;37948;53.260;6.394;2022-09-09T05:06:13;15.70;99.90
51922;DHT22;37948;53.260;6.394;2022-09-09T05:08:40;15.80;99.90
51922;DHT22;37948;53.260;6.394;2022-09-09T05:11:23;15.80;99.90
51922;DHT22;37948;53.260;6.394;2022-09-09T05:13:50;15.80;99.90
51922;DHT22;37948;53.260;6.394;2022-09-09T05:16:16;15.70;99.90
51922;DHT22;37948;53.260;6.394;2022-09-09T05:18:42;15.70;99.90
51922;DHT22;37948;53.260;6.394;2022-09-09T05:21:09;15.70;99.90
51922;DHT22;37948;53.260;6.394;2022-09-09T05:23:35;15.70;99.90
51922;DHT22;37948;53.260;6.394;2022-09-09T05:26:02;15.70;99.90
51922;DHT22;37948;53.260;6.394;2022-09-09T05:28:28;15.70;99.90
51922;DHT22;37948;53.260;6.394;2022-09-09T05:30:59;15.70;99.90
51922;DHT22;37948;53.260;6.394;2022-09-09T05:33:26;15.70;99.90
51922;DHT22;37948;53.260;6.394;2022-09-09T05:36:06;15.70;99.90
51922;DHT22;37948;53.260;6.394;2022-09-09T05:38:33;15.70;99.90
51922;DHT22;37948;53.260;6.394;2022-09-09T05:41:00;15.70;99.90
51922;DHT22;37948;53.260;6.394;2022-09-09T05:43:27;15.70;99.90
51922;DHT22;37948;53.260;6.394;2022-09-09T05:48:30;15.70;99.90
51922;DHT22;37948;53.260;6.394;2022-09-09T05:50:58;15.70;99.90
51922;DHT22;37948;53.260;6.394;2022-09-09T05:53:24;15.80;99.90
51922;DHT22;37948;53.260;6.394;2022-09-09T05:55:49;15.80;99.90
51922;DHT22;37948;53.260;6.394;2022-09-09T05:58:15;15.80;99.90
51922;DHT22;37948;53.260;6.394;2022-09-09T06:00:43;15.80;99.90
51922;DHT22;37948;53.260;6.394;2022-09-09T06:03:11;15.80;99.90
51922;DHT22;37948;53.260;6.394;2022-09-09T06:05:37;15.70;99.90
51922;DHT22;37948;53.260;6.394;2022-09-09T06:08:03;15.70;99.90
51922;DHT22;37948;53.260;6.394;2022-09-09T06:10:28;15.70;99.90
51922;DHT22;37948;53.260;6.394;2022-09-09T06:12:54;15.80;99.90
51922;DHT22;37948;53.260;6.394;2022-09-09T06:15:20;15.80;99.90
51922;DHT22;37948;53.260;6.394;2022-09-09T06:17:45;15.80;99.90
51922;DHT22;37948;53.260;6.394;2022-09-09T06:20:11;15.70;99.90
51922;DHT22;37948;53.260;6.394;2022-09-09T06:22:40;15.70;99.90
51922;DHT22;37948;53.260;6.394;2022-09-09T06:25:08;15.80;99.90
51922;DHT22;37948;53.260;6.394;2022-09-09T06:27:33;15.80;99.90
51922;DHT22;37948;53.260;6.394;2022-09-09T06:29:59;15.80;99.90
51922;DHT22;37948;53.260;6.394;2022-09-09T06:32:24;15.80;99.90
51922;DHT22;37948;53.260;6.394;2022-09-09T06:34:52;15.80;99.90
51922;DHT22;37948;53.260;6.394;2022-09-09T06:37:18;15.80;99.90
51922;DHT22;37948;53.260;6.394;2022-09-09T06:39:44;15.80;99.90
51922;DHT22;37948;53.260;6.394;2022-09-09T06:42:09;15.80;99.90
51922;DHT22;37948;53.260;6.394;2022-09-09T06:44:35;15.90;99.90
51922;DHT22;37948;53.260;6.394;2022-09-09T06:47:01;15.90;99.90
51922;DHT22;37948;53.260;6.394;2022-09-09T06:49:27;15.90;99.90
51922;DHT22;37948;53.260;6.394;2022-09-09T06:51:52;16.00;99.90
51922;DHT22;37948;53.260;6.394;2022-09-09T06:54:18;16.00;99.90
51922;DHT22;37948;53.260;6.394;2022-09-09T06:56:45;16.00;99.90
51922;DHT22;37948;53.260;6.394;2022-09-09T06:59:11;16.00;99.90
51922;DHT22;37948;53.260;6.394;2022-09-09T07:01:42;16.00;99.90
51922;DHT22;37948;53.260;6.394;2022-09-09T07:04:09;16.10;99.90
51922;DHT22;37948;53.260;6.394;2022-09-09T07:06:42;16.10;99.90
51922;DHT22;37948;53.260;6.394;2022-09-09T07:09:13;16.20;99.90
51922;DHT22;37948;53.260;6.394;2022-09-09T07:11:43;16.10;99.90
51922;DHT22;37948;53.260;6.394;2022-09-09T07:14:10;16.10;99.90
51922;DHT22;37948;53.260;6.394;2022-09-09T07:16:43;16.10;99.90
51922;DHT22;37948;53.260;6.394;2022-09-09T07:19:09;16.10;99.90
51922;DHT22;37948;53.260;6.394;2022-09-09T07:21:35;16.10;99.90
51922;DHT22;37948;53.260;6.394;2022-09-09T07:24:01;16.20;99.90
51922;DHT22;37948;53.260;6.394;2022-09-09T07:26:29;16.20;99.90
51922;DHT22;37948;53.260;6.394;2022-09-09T07:28:55;16.20;99.90
51922;DHT22;37948;53.260;6.394;2022-09-09T07:31:27;16.20;99.90
51922;DHT22;37948;53.260;6.394;2022-09-09T07:33:55;16.30;99.90
51922;DHT22;37948;53.260;6.394;2022-09-09T07:36:27;16.30;99.90
51922;DHT22;37948;53.260;6.394;2022-09-09T07:38:55;16.30;99.90
51922;DHT22;37948;53.260;6.394;2022-09-09T07:43:49;16.40;99.90
51922;DHT22;37948;53.260;6.394;2022-09-09T07:46:16;16.40;99.90
51922;DHT22;37948;53.260;6.394;2022-09-09T07:48:46;16.50;99.90
51922;DHT22;37948;53.260;6.394;2022-09-09T07:51:15;16.40;99.90
51922;DHT22;37948;53.260;6.394;2022-09-09T07:53:45;16.50;99.90
51922;DHT22;37948;53.260;6.394;2022-09-09T07:56:14;16.50;99.90
51922;DHT22;37948;53.260;6.394;2022-09-09T07:58:40;16.50;99.90
51922;DHT22;37948;53.260;6.394;2022-09-09T08:01:11;16.60;99.90
51922;DHT22;37948;53.260;6.394;2022-09-09T08:03:37;16.60;99.90
51922;DHT22;37948;53.260;6.394;2022-09-09T08:06:05;16.60;99.90
51922;DHT22;37948;53.260;6.394;2022-09-09T08:08:32;16.60;99.90
51922;DHT22;37948;53.260;6.394;2022-09-09T08:11:13;16.60;99.90
51922;DHT22;37948;53.260;6.394;2022-09-09T08:13:41;16.70;99.90
51922;DHT22;37948;53.260;6.394;2022-09-09T08:16:11;16.70;99.90
51922;DHT22;37948;53.260;6.394;2022-09-09T08:18:37;16.70;99.90
51922;DHT22;37948;53.260;6.394;2022-09-09T08:21:12;16.70;99.90
51922;DHT22;37948;53.260;6.394;2022-09-09T08:23:39;16.80;99.90
51922;DHT22;37948;53.260;6.394;2022-09-09T08:26:15;16.80;99.90
51922;DHT22;37948;53.260;6.394;2022-09-09T08:28:41;16.90;99.90
51922;DHT22;37948;53.260;6.394;2022-09-09T08:31:13;16.90;99.90
51922;DHT22;37948;53.260;6.394;2022-09-09T08:33:40;16.90;99.90
51922;DHT22;37948;53.260;6.394;2022-09-09T08:36:08;17.00;99.90
51922;DHT22;37948;53.260;6.394;2022-09-09T08:38:34;17.00;99.90
51922;DHT22;37948;53.260;6.394;2022-09-09T08:44:13;17.10;99.90
51922;DHT22;37948;53.260;6.394;2022-09-09T08:47:10;17.20;99.90
51922;DHT22;37948;53.260;6.394;2022-09-09T08:53:20;17.20;99.90
51922;DHT22;37948;53.260;6.394;2022-09-09T08:58:25;17.30;99.90
51922;DHT22;37948;53.260;6.394;2022-09-09T09:01:14;17.30;99.90
51922;DHT22;37948;53.260;6.394;2022-09-09T09:14:22;17.50;99.90
51922;DHT22;37948;53.260;6.394;2022-09-09T09:16:54;17.50;99.90
51922;DHT22;37948;53.260;6.394;2022-09-09T09:19:22;17.50;99.90
51922;DHT22;37948;53.260;6.394;2022-09-09T09:27:14;17.60;99.90
51922;DHT22;37948;53.260;6.394;2022-09-09T09:29:40;17.60;99.90
51922;DHT22;37948;53.260;6.394;2022-09-09T09:32:11;17.60;99.90
51922;DHT22;37948;53.260;6.394;2022-09-09T09:34:38;17.70;99.90
51922;DHT22;37948;53.260;6.394;2022-09-09T09:37:25;17.80;99.90
51922;DHT22;37948;53.260;6.394;2022-09-09T09:39:53;17.80;99.90
51922;DHT22;37948;53.260;6.394;2022-09-09T09:42:19;18.00;99.90
51922;DHT22;37948;53.260;6.394;2022-09-09T09:44:45;18.00;99.90
51922;DHT22;37948;53.260;6.394;2022-09-09T09:47:16;18.10;99.90
51922;DHT22;37948;53.260;6.394;2022-09-09T09:49:52;18.10;99.90
51922;DHT22;37948;53.260;6.394;2022-09-09T09:52:31;18.20;99.90
51922;DHT22;37948;53.260;6.394;2022-09-09T09:54:58;18.30;99.90
51922;DHT22;37948;53.260;6.394;2022-09-09T09:57:29;18.40;99.90
51922;DHT22;37948;53.260;6.394;2022-09-09T10:00:14;18.50;99.90
51922;DHT22;37948;53.260;6.394;2022-09-09T10:02:42;18.60;99.90
51922;DHT22;37948;53.260;6.394;2022-09-09T10:05:23;18.60;99.90
51922;DHT22;37948;53.260;6.394;2022-09-09T10:13:33;18.70;99.90
51922;DHT22;37948;53.260;6.394;2022-09-09T10:16:20;18.80;99.90
51922;DHT22;37948;53.260;6.394;2022-09-09T10:19:03;18.80;99.90
51922;DHT22;37948;53.260;6.394;2022-09-09T10:21:48;18.90;99.90
51922;DHT22;37948;53.260;6.394;2022-09-09T10:27:05;19.00;99.90
51922;DHT22;37948;53.260;6.394;2022-09-09T10:32:36;18.90;99.90
51922;DHT22;37948;53.260;6.394;2022-09-09T10:40:38;19.00;99.90
51922;DHT22;37948;53.260;6.394;2022-09-09T10:49:27;19.10;99.90
51922;DHT22;37948;53.260;6.394;2022-09-09T10:52:28;19.00;99.90
51922;DHT22;37948;53.260;6.394;2022-09-09T10:55:10;19.00;99.90
51922;DHT22;37948;53.260;6.394;2022-09-09T10:57:41;18.90;99.90
51922;DHT22;37948;53.260;6.394;2022-09-09T11:02:43;19.20;99.90
51922;DHT22;37948;53.260;6.394;2022-09-09T11:05:17;19.20;99.90
51922;DHT22;37948;53.260;6.394;2022-09-09T11:07:48;19.30;99.90
51922;DHT22;37948;53.260;6.394;2022-09-09T11:13:16;19.30;99.90
51922;DHT22;37948;53.260;6.394;2022-09-09T11:15:46;19.30;99.90
51922;DHT22;37948;53.260;6.394;2022-09-09T11:18:19;19.30;99.90
51922;DHT22;37948;53.260;6.394;2022-09-09T11:20:50;19.40;99.90
51922;DHT22;37948;53.260;6.394;2022-09-09T11:23:38;19.50;99.90
51922;DHT22;37948;53.260;6.394;2022-09-09T11:26:05;19.70;99.90
51922;DHT22;37948;53.260;6.394;2022-09-09T11:33:58;19.90;99.90
51922;DHT22;37948;53.260;6.394;2022-09-09T11:42:25;20.10;99.90
51922;DHT22;37948;53.260;6.394;2022-09-09T11:44:51;20.00;99.90
51922;DHT22;37948;53.260;6.394;2022-09-09T11:47:25;20.00;99.90
51922;DHT22;37948;53.260;6.394;2022-09-09T11:49:55;20.00;99.90
51922;DHT22;37948;53.260;6.394;2022-09-09T11:52:38;20.10;99.90
51922;DHT22;37948;53.260;6.394;2022-09-09T11:55:23;20.10;99.90
51922;DHT22;37948;53.260;6.394;2022-09-09T11:57:58;20.20;99.90
51922;DHT22;37948;53.260;6.394;2022-09-09T12:00:51;20.20;99.90
51922;DHT22;37948;53.260;6.394;2022-09-09T12:03:33;20.20;99.90
51922;DHT22;37948;53.260;6.394;2022-09-09T12:08:43;20.20;99.90
51922;DHT22;37948;53.260;6.394;2022-09-09T12:11:11;20.20;99.90
51922;DHT22;37948;53.260;6.394;2022-09-09T12:13:36;20.20;99.90
51922;DHT22;37948;53.260;6.394;2022-09-09T12:16:02;20.30;99.90
51922;DHT22;37948;53.260;6.394;2022-09-09T12:18:35;20.30;99.90
51922;DHT22;37948;53.260;6.394;2022-09-09T12:23:55;20.30;99.90
51922;DHT22;37948;53.260;6.394;2022-09-09T12:26:43;20.30;99.90
51922;DHT22;37948;53.260;6.394;2022-09-09T12:32:00;20.30;99.90
51922;DHT22;37948;53.260;6.394;2022-09-09T12:34:46;20.20;99.90
51922;DHT22;37948;53.260;6.394;2022-09-09T12:40:03;20.10;99.90
51922;DHT22;37948;53.260;6.394;2022-09-09T12:42:29;20.10;99.90
51922;DHT22;37948;53.260;6.394;2022-09-09T12:45:00;20.10;99.90
51922;DHT22;37948;53.260;6.394;2022-09-09T12:47:37;20.10;99.90
51922;DHT22;37948;53.260;6.394;2022-09-09T12:50:04;20.10;99.90
51922;DHT22;37948;53.260;6.394;2022-09-09T12:52:32;20.20;99.90
51922;DHT22;37948;53.260;6.394;2022-09-09T12:55:02;20.30;99.90
51922;DHT22;37948;53.260;6.394;2022-09-09T12:57:34;20.50;99.90
51922;DHT22;37948;53.260;6.394;2022-09-09T13:00:15;20.60;99.90
51922;DHT22;37948;53.260;6.394;2022-09-09T13:02:54;20.60;99.90
51922;DHT22;37948;53.260;6.394;2022-09-09T13:07:50;20.70;99.90
51922;DHT22;37948;53.260;6.394;2022-09-09T13:10:27;20.70;99.90
51922;DHT22;37948;53.260;6.394;2022-09-09T13:12:54;20.80;99.90
51922;DHT22;37948;53.260;6.394;2022-09-09T13:15:24;20.80;99.90
51922;DHT22;37948;53.260;6.394;2022-09-09T13:17:57;20.90;99.90
51922;DHT22;37948;53.260;6.394;2022-09-09T13:20:26;21.00;99.90
51922;DHT22;37948;53.260;6.394;2022-09-09T13:22:53;21.10;99.90
51922;DHT22;37948;53.260;6.394;2022-09-09T13:25:29;21.20;99.90
51922;DHT22;37948;53.260;6.394;2022-09-09T13:35:27;20.90;99.90
51922;DHT22;37948;53.260;6.394;2022-09-09T13:37:53;20.80;99.90
51922;DHT22;37948;53.260;6.394;2022-09-09T13:40:23;20.70;99.90
51922;DHT22;37948;53.260;6.394;2022-09-09T13:42:53;20.70;99.90
51922;DHT22;37948;53.260;6.394;2022-09-09T13:45:21;20.70;99.90
51922;DHT22;37948;53.260;6.394;2022-09-09T13:47:48;20.70;99.90
51922;DHT22;37948;53.260;6.394;2022-09-09T13:50:28;20.60;99.90
51922;DHT22;37948;53.260;6.394;2022-09-09T13:52:56;20.50;99.90
51922;DHT22;37948;53.260;6.394;2022-09-09T13:55:24;20.50;99.90
51922;DHT22;37948;53.260;6.394;2022-09-09T13:57:55;20.40;99.90
51922;DHT22;37948;53.260;6.394;2022-09-09T14:00:21;20.40;99.90
51922;DHT22;37948;53.260;6.394;2022-09-09T14:02:48;20.30;99.90
51922;DHT22;37948;53.260;6.394;2022-09-09T14:05:14;20.30;99.90
51922;DHT22;37948;53.260;6.394;2022-09-09T14:07:42;20.20;99.90
51922;DHT22;37948;53.260;6.394;2022-09-09T14:10:08;20.20;99.90
51922;DHT22;37948;53.260;6.394;2022-09-09T14:12:33;20.20;99.90
51922;DHT22;37948;53.260;6.394;2022-09-09T14:14:59;20.30;99.90
51922;DHT22;37948;53.260;6.394;2022-09-09T14:17:28;20.40;99.90
51922;DHT22;37948;53.260;6.394;2022-09-09T14:19:55;20.50;99.90
51922;DHT22;37948;53.260;6.394;2022-09-09T14:22:21;20.40;99.90
51922;DHT22;37948;53.260;6.394;2022-09-09T14:24:47;20.30;99.90
51922;DHT22;37948;53.260;6.394;2022-09-09T14:27:13;20.30;99.90
51922;DHT22;37948;53.260;6.394;2022-09-09T14:29:38;20.20;99.90
51922;DHT22;37948;53.260;6.394;2022-09-09T14:32:04;20.10;99.90
51922;DHT22;37948;53.260;6.394;2022-09-09T14:34:30;20.10;99.90
51922;DHT22;37948;53.260;6.394;2022-09-09T14:36:57;20.10;99.90
51922;DHT22;37948;53.260;6.394;2022-09-09T14:39:23;20.00;99.90
51922;DHT22;37948;53.260;6.394;2022-09-09T14:41:48;19.90;99.90
51922;DHT22;37948;53.260;6.394;2022-09-09T14:44:14;19.80;99.90
51922;DHT22;37948;53.260;6.394;2022-09-09T14:46:41;19.70;99.90
51922;DHT22;37948;53.260;6.394;2022-09-09T14:49:08;19.60;99.90
51922;DHT22;37948;53.260;6.394;2022-09-09T14:51:36;19.60;99.90
51922;DHT22;37948;53.260;6.394;2022-09-09T14:54:02;19.50;99.90
51922;DHT22;37948;53.260;6.394;2022-09-09T14:56:30;19.50;99.90
51922;DHT22;37948;53.260;6.394;2022-09-09T14:58:58;19.50;99.90
51922;DHT22;37948;53.260;6.394;2022-09-09T15:01:26;19.40;99.90
51922;DHT22;37948;53.260;6.394;2022-09-09T15:03:57;19.40;99.90
51922;DHT22;37948;53.260;6.394;2022-09-09T15:06:27;19.40;99.90
51922;DHT22;37948;53.260;6.394;2022-09-09T15:08:54;19.30;99.90
51922;DHT22;37948;53.260;6.394;2022-09-09T15:11:23;19.20;99.90
51922;DHT22;37948;53.260;6.394;2022-09-09T15:13:51;19.20;99.90
51922;DHT22;37948;53.260;6.394;2022-09-09T15:16:19;19.30;99.90
51922;DHT22;37948;53.260;6.394;2022-09-09T15:18:45;19.30;99.90
51922;DHT22;37948;53.260;6.394;2022-09-09T15:21:35;19.30;99.90
51922;DHT22;37948;53.260;6.394;2022-09-09T15:24:00;19.40;99.90
51922;DHT22;37948;53.260;6.394;2022-09-09T15:26:27;19.50;99.90
51922;DHT22;37948;53.260;6.394;2022-09-09T15:28:52;19.50;99.90
51922;DHT22;37948;53.260;6.394;2022-09-09T15:31:24;19.70;99.90
51922;DHT22;37948;53.260;6.394;2022-09-09T15:36:19;19.70;99.90
51922;DHT22;37948;53.260;6.394;2022-09-09T15:38:45;19.70;99.90
51922;DHT22;37948;53.260;6.394;2022-09-09T15:41:12;19.70;99.90
51922;DHT22;37948;53.260;6.394;2022-09-09T15:43:39;19.70;99.90
51922;DHT22;37948;53.260;6.394;2022-09-09T15:48:43;19.70;99.90
51922;DHT22;37948;53.260;6.394;2022-09-09T15:51:13;19.70;99.90
51922;DHT22;37948;53.260;6.394;2022-09-09T15:53:39;19.70;99.90
51922;DHT22;37948;53.260;6.394;2022-09-09T15:56:06;19.70;99.90
51922;DHT22;37948;53.260;6.394;2022-09-09T15:58:35;19.70;99.90
51922;DHT22;37948;53.260;6.394;2022-09-09T16:01:09;19.60;99.90
51922;DHT22;37948;53.260;6.394;2022-09-09T16:03:36;19.60;99.90
51922;DHT22;37948;53.260;6.394;2022-09-09T16:06:04;19.60;99.90
51922;DHT22;37948;53.260;6.394;2022-09-09T16:08:38;19.60;99.90
51922;DHT22;37948;53.260;6.394;2022-09-09T16:11:09;19.60;99.90
51922;DHT22;37948;53.260;6.394;2022-09-09T16:13:38;19.50;99.90
51922;DHT22;37948;53.260;6.394;2022-09-09T16:16:07;19.50;99.90
51922;DHT22;37948;53.260;6.394;2022-09-09T16:18:39;19.50;99.90
51922;DHT22;37948;53.260;6.394;2022-09-09T16:21:06;19.40;99.90
51922;DHT22;37948;53.260;6.394;2022-09-09T16:23:36;19.40;99.90
51922;DHT22;37948;53.260;6.394;2022-09-09T16:26:02;19.30;99.90
51922;DHT22;37948;53.260;6.394;2022-09-09T16:28:28;19.30;99.90
51922;DHT22;37948;53.260;6.394;2022-09-09T16:30:53;19.20;99.90
51922;DHT22;37948;53.260;6.394;2022-09-09T16:33:19;19.20;99.90
51922;DHT22;37948;53.260;6.394;2022-09-09T16:35:45;19.10;99.90
51922;DHT22;37948;53.260;6.394;2022-09-09T16:38:11;19.10;99.90
51922;DHT22;37948;53.260;6.394;2022-09-09T16:40:37;19.00;99.90
51922;DHT22;37948;53.260;6.394;2022-09-09T16:43:04;19.00;99.90
51922;DHT22;37948;53.260;6.394;2022-09-09T16:45:31;18.90;99.90
51922;DHT22;37948;53.260;6.394;2022-09-09T16:47:58;18.90;99.90
51922;DHT22;37948;53.260;6.394;2022-09-09T16:50:24;18.80;99.90
51922;DHT22;37948;53.260;6.394;2022-09-09T16:52:51;18.70;99.90
51922;DHT22;37948;53.260;6.394;2022-09-09T16:55:17;18.60;99.90
51922;DHT22;37948;53.260;6.394;2022-09-09T16:57:46;18.60;99.90
51922;DHT22;37948;53.260;6.394;2022-09-09T17:00:14;18.60;99.90
51922;DHT22;37948;53.260;6.394;2022-09-09T17:02:42;18.60;99.90
51922;DHT22;37948;53.260;6.394;2022-09-09T17:05:08;18.50;99.90
51922;DHT22;37948;53.260;6.394;2022-09-09T17:07:34;18.50;99.90
51922;DHT22;37948;53.260;6.394;2022-09-09T17:10:01;18.50;99.90
51922;DHT22;37948;53.260;6.394;2022-09-09T17:12:27;18.50;99.90
51922;DHT22;37948;53.260;6.394;2022-09-09T17:14:52;18.50;99.90
51922;DHT22;37948;53.260;6.394;2022-09-09T17:17:18;18.50;99.90
51922;DHT22;37948;53.260;6.394;2022-09-09T17:19:43;18.50;99.90
51922;DHT22;37948;53.260;6.394;2022-09-09T17:22:09;18.50;99.90
51922;DHT22;37948;53.260;6.394;2022-09-09T17:24:35;18.50;99.90
51922;DHT22;37948;53.260;6.394;2022-09-09T17:27:03;18.40;99.90
51922;DHT22;37948;53.260;6.394;2022-09-09T17:29:29;18.40;99.90
51922;DHT22;37948;53.260;6.394;2022-09-09T17:31:54;18.40;99.90
51922;DHT22;37948;53.260;6.394;2022-09-09T17:34:20;18.40;99.90
51922;DHT22;37948;53.260;6.394;2022-09-09T17:36:46;18.40;99.90
51922;DHT22;37948;53.260;6.394;2022-09-09T17:39:12;18.40;99.90
51922;DHT22;37948;53.260;6.394;2022-09-09T17:41:39;18.40;99.90
51922;DHT22;37948;53.260;6.394;2022-09-09T17:44:06;18.30;99.90
51922;DHT22;37948;53.260;6.394;2022-09-09T17:46:33;18.30;99.90
51922;DHT22;37948;53.260;6.394;2022-09-09T17:49:02;18.30;99.90
51922;DHT22;37948;53.260;6.394;2022-09-09T17:51:29;18.30;99.90